createdAt,value
2023-01-21T00:02:12.291Z,29.00
2023-01-21T00:04:40.735Z,29.80
2023-01-21T00:07:09.564Z,30.07
2023-01-21T00:09:38.752Z,29.17
2023-01-21T00:12:07.639Z,28.40
2023-01-21T00:14:37.501Z,29.00
2023-01-21T00:17:06.000Z,27.83
2023-01-21T00:19:36.110Z,27.00
2023-01-21T00:22:05.188Z,27.77
2023-01-21T00:24:33.612Z,27.33
2023-01-21T00:27:02.182Z,27.30
2023-01-21T00:29:30.673Z,28.10
2023-01-21T00:32:00.514Z,26.67
2023-01-21T00:34:32.052Z,26.67
2023-01-21T00:37:00.451Z,27.40
2023-01-21T00:39:28.972Z,26.37
2023-01-21T00:41:57.309Z,26.50
2023-01-21T00:44:27.770Z,26.10
2023-01-21T00:46:56.423Z,27.30
2023-01-21T00:49:26.177Z,28.17
2023-01-21T00:51:54.720Z,27.17
2023-01-21T00:54:26.541Z,26.20
2023-01-21T00:56:55.385Z,25.93
2023-01-21T00:59:24.090Z,25.50
2023-01-21T01:01:55.426Z,26.00
2023-01-21T01:04:26.067Z,24.70
2023-01-21T01:06:55.242Z,25.80
2023-01-21T01:09:25.032Z,25.63
2023-01-21T01:11:54.000Z,27.10
2023-01-21T01:14:22.570Z,26.60
2023-01-21T01:16:51.229Z,25.27
2023-01-21T01:19:19.853Z,23.00
2023-01-21T01:21:49.838Z,26.23
2023-01-21T01:24:18.232Z,24.10
2023-01-21T01:26:49.595Z,22.60
2023-01-21T01:29:18.672Z,24.07
2023-01-21T01:31:47.308Z,22.40
2023-01-21T01:34:15.806Z,24.97
2023-01-21T01:36:44.862Z,24.20
2023-01-21T01:39:14.649Z,24.40
2023-01-21T01:41:43.287Z,23.30
2023-01-21T01:44:45.009Z,25.40
2023-01-21T01:47:15.562Z,25.20
2023-01-21T01:49:44.516Z,25.10
2023-01-21T01:52:18.216Z,26.33
2023-01-21T01:54:53.090Z,25.40
2023-01-21T01:57:25.157Z,25.83
2023-01-21T01:59:53.621Z,25.27
2023-01-21T02:02:22.405Z,24.97
2023-01-21T02:04:55.118Z,26.70
2023-01-21T02:07:27.612Z,26.73
2023-01-21T02:09:57.652Z,27.20
2023-01-21T02:12:26.684Z,27.03
2023-01-21T02:14:55.377Z,27.63
2023-01-21T02:17:47.237Z,27.90
2023-01-21T02:20:42.178Z,27.50
2023-01-21T02:23:21.212Z,27.83
2023-01-21T02:26:19.608Z,29.80
2023-01-21T02:29:14.384Z,27.70
2023-01-21T02:32:08.337Z,27.67
2023-01-21T02:34:43.078Z,29.10
2023-01-21T02:37:14.124Z,28.13
2023-01-21T02:39:59.634Z,28.57
2023-01-21T02:42:33.849Z,28.10
2023-01-21T02:45:10.666Z,27.63
2023-01-21T02:47:47.077Z,27.30
2023-01-21T02:50:23.133Z,27.63
2023-01-21T02:52:57.480Z,28.73
2023-01-21T02:55:29.312Z,27.07
2023-01-21T02:58:00.845Z,26.33
2023-01-21T03:00:37.428Z,27.10
2023-01-21T03:03:36.141Z,25.20
2023-01-21T03:06:39.914Z,27.47
2023-01-21T03:09:23.302Z,25.20
2023-01-21T03:12:01.208Z,27.60
2023-01-21T03:14:53.689Z,25.37
2023-01-21T03:17:30.277Z,26.40
2023-01-21T03:20:03.087Z,28.07
2023-01-21T03:22:36.552Z,27.77
2023-01-21T03:25:07.153Z,26.77
2023-01-21T03:27:36.494Z,27.10
2023-01-21T03:30:11.205Z,27.33
2023-01-21T03:32:42.173Z,26.17
2023-01-21T03:35:13.203Z,25.80
2023-01-21T03:37:46.957Z,26.77
2023-01-21T03:40:21.449Z,27.30
2023-01-21T03:42:56.288Z,28.13
2023-01-21T03:45:44.992Z,28.70
2023-01-21T03:48:19.928Z,26.07
2023-01-21T03:50:54.733Z,27.70
2023-01-21T03:53:27.512Z,27.70
2023-01-21T03:55:55.953Z,29.17
2023-01-21T03:58:24.488Z,28.70
2023-01-21T04:00:52.975Z,30.30
2023-01-21T04:03:21.527Z,27.57
2023-01-21T04:05:50.316Z,29.03
2023-01-21T04:08:20.835Z,27.07
2023-01-21T04:10:50.581Z,26.90
2023-01-21T04:13:19.099Z,25.17
2023-01-21T04:15:47.507Z,25.27
2023-01-21T04:18:16.074Z,24.13
2023-01-21T04:20:47.028Z,23.83
2023-01-21T04:23:15.566Z,22.60
2023-01-21T04:25:43.985Z,23.10
2023-01-21T04:28:13.866Z,23.27
2023-01-21T04:30:42.321Z,20.83
2023-01-21T04:33:10.934Z,22.40
2023-01-21T04:35:39.398Z,21.60
2023-01-21T04:38:08.238Z,21.10
2023-01-21T04:40:36.744Z,21.00
2023-01-21T04:43:05.248Z,22.27
2023-01-21T04:45:37.501Z,21.07
2023-01-21T04:48:06.257Z,19.70
2023-01-21T04:50:37.239Z,20.07
2023-01-21T04:53:05.788Z,18.90
2023-01-21T04:55:36.237Z,18.57
2023-01-21T04:58:04.902Z,18.70
2023-01-21T05:00:37.417Z,19.13
2023-01-21T05:03:05.967Z,19.50
2023-01-21T05:05:34.446Z,18.13
2023-01-21T05:08:02.991Z,17.20
2023-01-21T05:10:31.550Z,19.67
2023-01-21T05:13:00.429Z,18.40
2023-01-21T05:15:28.951Z,18.83
2023-01-21T05:17:58.936Z,19.27
2023-01-21T05:20:27.617Z,18.73
2023-01-21T05:22:56.153Z,17.50
2023-01-21T05:25:27.308Z,19.37
2023-01-21T05:27:56.855Z,18.23
2023-01-21T05:30:25.245Z,16.83
2023-01-21T05:32:54.091Z,17.17
2023-01-21T05:35:25.282Z,17.70
2023-01-21T05:37:53.804Z,18.57
2023-01-21T05:40:22.354Z,17.53
2023-01-21T05:42:50.833Z,17.37
2023-01-21T05:45:19.540Z,17.47
2023-01-21T05:47:48.030Z,16.90
2023-01-21T05:50:16.764Z,16.70
2023-01-21T05:52:46.861Z,16.50
2023-01-21T05:55:15.305Z,16.80
2023-01-21T05:57:44.938Z,16.73
2023-01-21T06:00:14.968Z,16.30
2023-01-21T06:02:43.671Z,15.80
2023-01-21T06:05:12.134Z,16.67
2023-01-21T06:07:40.658Z,15.60
2023-01-21T06:10:12.060Z,16.23
2023-01-21T06:12:43.457Z,15.33
2023-01-21T06:15:13.954Z,14.30
2023-01-21T06:17:42.608Z,15.87
2023-01-21T06:20:12.265Z,14.27
2023-01-21T06:22:40.803Z,15.57
2023-01-21T06:25:11.835Z,14.90
2023-01-21T06:27:40.334Z,15.53
2023-01-21T06:30:11.120Z,13.60
2023-01-21T06:32:41.220Z,14.90
2023-01-21T06:35:10.222Z,14.00
2023-01-21T06:37:38.790Z,15.50
2023-01-21T06:40:09.211Z,15.00
2023-01-21T06:42:39.135Z,15.33
2023-01-21T06:45:09.334Z,13.77
2023-01-21T06:47:37.838Z,13.80
2023-01-21T06:50:07.139Z,14.00
2023-01-21T06:52:35.722Z,13.97
2023-01-21T06:55:04.273Z,14.07
2023-01-21T06:57:32.787Z,14.53
2023-01-21T07:00:02.638Z,14.60
2023-01-21T07:02:31.178Z,13.30
2023-01-21T07:04:59.638Z,12.60
2023-01-21T07:07:28.501Z,13.97
2023-01-21T07:09:56.939Z,12.67
2023-01-21T07:12:25.482Z,12.47
2023-01-21T07:14:54.057Z,12.77
2023-01-21T07:17:26.876Z,13.23
2023-01-21T07:19:55.384Z,12.97
2023-01-21T07:22:23.996Z,13.03
2023-01-21T07:24:52.438Z,13.77
2023-01-21T07:27:20.954Z,11.90
2023-01-21T07:29:49.403Z,11.80
2023-01-21T07:32:17.908Z,12.40
2023-01-21T07:34:47.697Z,13.20
2023-01-21T07:37:16.277Z,12.47
2023-01-21T07:39:44.735Z,12.77
2023-01-21T07:42:13.368Z,12.00
2023-01-21T07:44:45.821Z,11.40
2023-01-21T07:47:14.484Z,10.93
2023-01-21T07:49:43.014Z,12.23
2023-01-21T07:52:12.894Z,12.53
2023-01-21T07:54:41.807Z,12.20
2023-01-21T07:57:10.457Z,11.53
2023-01-21T07:59:39.027Z,13.03
2023-01-21T08:02:09.927Z,11.17
2023-01-21T08:04:39.804Z,13.00
2023-01-21T08:07:12.040Z,12.90
2023-01-21T08:09:42.984Z,12.30
2023-01-21T08:12:12.199Z,12.73
2023-01-21T08:14:42.193Z,11.60
2023-01-21T08:17:10.593Z,11.90
2023-01-21T08:19:39.325Z,11.33
2023-01-21T08:22:07.873Z,11.70
2023-01-21T08:24:36.385Z,11.30
2023-01-21T08:27:06.542Z,11.93
2023-01-21T08:29:35.040Z,10.97
2023-01-21T08:32:03.761Z,11.10
2023-01-21T08:34:33.629Z,9.53
2023-01-21T08:37:02.417Z,9.03
2023-01-21T08:39:30.929Z,10.10
2023-01-21T08:41:59.476Z,10.13
2023-01-21T08:44:31.790Z,10.70
2023-01-21T08:47:00.336Z,10.43
2023-01-21T08:49:28.894Z,10.27
2023-01-21T08:51:57.732Z,10.53
2023-01-21T08:54:26.433Z,9.20
2023-01-21T08:56:54.968Z,10.00
2023-01-21T08:59:30.930Z,9.33
2023-01-21T09:02:00.904Z,9.53
2023-01-21T09:04:29.573Z,9.30
2023-01-21T09:06:58.127Z,10.23
2023-01-21T09:09:26.502Z,10.67
2023-01-21T09:11:55.015Z,9.50
2023-01-21T09:14:23.455Z,10.10
2023-01-21T09:16:52.267Z,10.00
2023-01-21T09:19:22.866Z,9.97
2023-01-21T09:21:52.470Z,9.90
2023-01-21T09:24:20.888Z,10.67
2023-01-21T09:26:49.525Z,9.90
2023-01-21T09:29:17.989Z,9.97
2023-01-21T09:31:46.648Z,9.00
2023-01-21T09:34:15.117Z,9.37
2023-01-21T09:36:45.063Z,8.10
2023-01-21T09:39:13.487Z,8.80
2023-01-21T09:41:46.032Z,9.90
2023-01-21T09:44:20.301Z,7.80
2023-01-21T09:46:54.047Z,8.80
2023-01-21T09:49:26.172Z,8.93
2023-01-21T09:52:04.036Z,9.03
2023-01-21T09:54:34.610Z,8.07
2023-01-21T09:57:23.945Z,8.17
2023-01-21T10:00:09.095Z,6.70
2023-01-21T10:02:52.367Z,6.93
2023-01-21T10:05:43.765Z,7.00
2023-01-21T10:08:21.217Z,5.97
2023-01-21T10:10:53.743Z,7.37
2023-01-21T10:13:36.091Z,6.73
2023-01-21T10:16:16.178Z,6.70
2023-01-21T10:18:48.619Z,6.77
2023-01-21T10:21:29.945Z,6.10
2023-01-21T10:24:07.766Z,5.90
2023-01-21T10:26:36.615Z,5.90
2023-01-21T10:29:05.744Z,6.40
2023-01-21T10:31:40.440Z,5.90
2023-01-21T10:34:14.747Z,5.50
2023-01-21T10:37:01.471Z,5.67
2023-01-21T10:39:42.041Z,4.70
2023-01-21T10:42:43.054Z,5.87
2023-01-21T10:45:26.572Z,5.00
2023-01-21T10:48:02.441Z,6.00
2023-01-21T10:50:41.848Z,5.70
2023-01-21T10:53:22.824Z,6.00
2023-01-21T10:56:02.485Z,5.23
2023-01-21T10:58:35.003Z,5.70
2023-01-21T11:01:07.627Z,5.30
2023-01-21T11:03:41.559Z,4.97
2023-01-21T11:06:13.321Z,5.17
2023-01-21T11:08:45.213Z,5.33
2023-01-21T11:11:26.532Z,5.77
2023-01-21T11:13:55.524Z,5.33
2023-01-21T11:16:44.687Z,4.83
2023-01-21T11:19:15.377Z,4.67
2023-01-21T11:22:00.001Z,5.53
2023-01-21T11:24:30.854Z,5.20
2023-01-21T11:27:02.622Z,5.67
2023-01-21T11:29:41.689Z,5.57
2023-01-21T11:32:20.617Z,5.70
2023-01-21T11:34:51.202Z,5.33
2023-01-21T11:37:25.348Z,4.60
2023-01-21T11:39:57.043Z,5.07
2023-01-21T11:42:27.530Z,4.60
2023-01-21T11:44:59.167Z,4.40
2023-01-21T11:47:30.611Z,4.93
2023-01-21T11:50:10.562Z,4.80
2023-01-21T11:52:39.089Z,4.90
2023-01-21T11:55:20.255Z,6.00
2023-01-21T11:57:54.756Z,5.60
2023-01-21T12:00:27.110Z,5.60
2023-01-21T12:02:59.714Z,5.40
2023-01-21T12:05:33.464Z,4.93
2023-01-21T12:08:04.082Z,4.60
2023-01-21T12:10:34.677Z,4.60
2023-01-21T12:13:23.809Z,4.50
2023-01-21T12:16:08.050Z,4.63
2023-01-21T12:18:54.733Z,5.13
2023-01-21T12:21:38.057Z,4.70
2023-01-21T12:24:20.585Z,4.07
2023-01-21T12:26:56.385Z,5.07
2023-01-21T12:29:48.449Z,4.70
2023-01-21T12:32:23.777Z,4.50
2023-01-21T12:35:00.436Z,5.40
2023-01-21T12:37:34.093Z,4.40
2023-01-21T12:40:10.996Z,5.23
2023-01-21T12:42:43.637Z,4.63
2023-01-21T12:45:19.030Z,4.67
2023-01-21T12:47:52.844Z,4.50
2023-01-21T12:50:29.930Z,4.60
2023-01-21T12:53:11.432Z,5.03
2023-01-21T12:56:02.675Z,5.23
2023-01-21T12:58:34.020Z,4.23
2023-01-21T13:01:07.820Z,4.00
2023-01-21T13:03:47.225Z,4.23
2023-01-21T13:06:22.744Z,4.27
2023-01-21T13:09:01.169Z,3.80
2023-01-21T13:11:31.977Z,4.57
2023-01-21T13:14:24.781Z,4.70
2023-01-21T13:16:58.764Z,4.27
2023-01-21T13:19:28.668Z,4.33
2023-01-21T13:22:05.042Z,4.63
2023-01-21T13:24:44.418Z,4.70
2023-01-21T13:27:21.292Z,4.77
2023-01-21T13:30:00.428Z,4.37
2023-01-21T13:32:38.448Z,4.30
2023-01-21T13:35:24.318Z,3.90
2023-01-21T13:38:02.711Z,4.43
2023-01-21T13:40:42.211Z,4.10
2023-01-21T13:43:23.956Z,4.43
2023-01-21T13:46:03.600Z,4.10
2023-01-21T13:48:58.038Z,4.10
2023-01-21T13:51:43.750Z,3.70
2023-01-21T13:54:39.556Z,4.30
2023-01-21T13:57:31.867Z,4.63
2023-01-21T14:00:04.701Z,4.10
2023-01-21T14:02:46.565Z,4.30
2023-01-21T14:05:22.932Z,3.77
2023-01-21T14:07:57.150Z,5.00
2023-01-21T14:10:35.224Z,4.60
2023-01-21T14:13:23.915Z,4.60
2023-01-21T14:16:11.070Z,6.43
2023-01-21T14:19:00.189Z,4.73
2023-01-21T14:21:47.480Z,4.40
2023-01-21T14:24:33.623Z,4.50
2023-01-21T14:27:17.529Z,4.87
2023-01-21T14:29:54.769Z,4.40
2023-01-21T14:32:29.146Z,4.50
2023-01-21T14:35:10.480Z,5.00
2023-01-21T14:37:45.223Z,4.90
2023-01-21T14:40:19.765Z,4.80
2023-01-21T14:42:50.282Z,4.90
2023-01-21T14:45:22.435Z,4.80
2023-01-21T14:47:53.607Z,4.37
2023-01-21T14:50:45.947Z,5.30
2023-01-21T14:53:22.858Z,6.23
2023-01-21T14:56:20.205Z,5.30
2023-01-21T14:58:50.548Z,5.23
2023-01-21T15:01:35.375Z,4.80
2023-01-21T15:04:07.849Z,5.03
2023-01-21T15:06:40.894Z,5.30
2023-01-21T15:09:21.514Z,5.30
2023-01-21T15:11:54.554Z,5.30
2023-01-21T15:14:27.498Z,5.63
2023-01-21T15:16:56.007Z,5.90
2023-01-21T15:19:32.950Z,5.43
2023-01-21T15:22:21.798Z,5.30
2023-01-21T15:25:26.478Z,5.30
2023-01-21T15:28:38.296Z,4.40
2023-01-21T15:31:13.949Z,4.93
2023-01-21T15:33:47.969Z,4.97
2023-01-21T15:36:25.939Z,4.83
2023-01-21T15:39:02.319Z,5.20
2023-01-21T15:41:44.277Z,5.40
2023-01-21T15:44:27.793Z,6.10
2023-01-21T15:47:04.981Z,4.97
2023-01-21T15:49:49.546Z,5.40
2023-01-21T15:52:31.539Z,5.37
2023-01-21T15:55:18.681Z,5.10
2023-01-21T15:57:55.408Z,6.77
2023-01-21T16:00:43.603Z,6.00
2023-01-21T16:03:21.302Z,5.87
2023-01-21T16:05:59.227Z,5.47
2023-01-21T16:08:47.207Z,5.47
2023-01-21T16:11:34.095Z,5.10
2023-01-21T16:14:18.331Z,6.23
2023-01-21T16:16:57.832Z,5.60
2023-01-21T16:19:31.819Z,5.47
2023-01-21T16:22:05.080Z,5.00
2023-01-21T16:24:38.769Z,5.30
2023-01-21T16:27:21.635Z,6.20
2023-01-21T16:29:56.237Z,5.87
2023-01-21T16:32:25.508Z,6.10
2023-01-21T16:34:55.763Z,5.77
2023-01-21T16:37:26.278Z,10.77
2023-01-21T16:39:56.278Z,9.30
2023-01-21T16:42:30.970Z,8.83
2023-01-21T16:45:00.014Z,7.90
2023-01-21T16:47:32.484Z,6.87
2023-01-21T16:50:03.332Z,7.10
2023-01-21T16:52:32.467Z,6.00
2023-01-21T16:55:01.174Z,6.10
2023-01-21T16:57:32.111Z,6.67
2023-01-21T17:00:03.451Z,6.63
2023-01-21T17:02:34.282Z,6.53
2023-01-21T17:05:05.999Z,6.10
2023-01-21T17:07:39.169Z,6.20
2023-01-21T17:10:19.316Z,9.03
2023-01-21T17:12:49.664Z,8.43
2023-01-21T17:15:22.016Z,7.90
2023-01-21T17:17:50.514Z,7.67
2023-01-21T17:20:40.551Z,7.00
2023-01-21T17:23:15.791Z,13.40
2023-01-21T17:25:44.537Z,17.50
2023-01-21T17:28:19.934Z,25.00
2023-01-21T17:31:08.966Z,72.20
2023-01-21T17:33:37.567Z,57.17
2023-01-21T17:36:09.928Z,37.90
2023-01-21T17:38:43.583Z,34.93
2023-01-21T17:41:24.601Z,30.70
2023-01-21T17:43:56.986Z,19.73
2023-01-21T17:46:26.592Z,14.63
2023-01-21T17:48:59.387Z,7.30
2023-01-21T17:51:31.602Z,5.90
2023-01-21T17:54:03.663Z,5.40
2023-01-21T17:56:43.044Z,5.30
2023-01-21T17:59:37.995Z,6.53
2023-01-21T18:02:13.082Z,6.73
2023-01-21T18:04:41.961Z,6.10
2023-01-21T18:07:21.247Z,6.70
2023-01-21T18:09:50.248Z,5.60
2023-01-21T18:12:19.729Z,6.57
2023-01-21T18:14:48.930Z,6.90
2023-01-21T18:17:19.846Z,6.73
2023-01-21T18:19:48.321Z,6.10
2023-01-21T18:22:24.013Z,6.60
2023-01-21T18:24:52.575Z,6.47
2023-01-21T18:27:25.708Z,5.90
2023-01-21T18:29:58.591Z,6.00
2023-01-21T18:32:27.303Z,6.67
2023-01-21T18:34:57.824Z,6.93
2023-01-21T18:37:28.107Z,6.67
2023-01-21T18:39:56.645Z,6.70
2023-01-21T18:42:26.200Z,6.73
2023-01-21T18:44:54.686Z,6.70
2023-01-21T18:47:25.160Z,6.03
2023-01-21T18:49:54.569Z,6.83
2023-01-21T18:52:23.044Z,6.77
2023-01-21T18:54:52.945Z,6.80
2023-01-21T18:57:23.775Z,7.87
2023-01-21T18:59:52.218Z,7.00
2023-01-21T19:02:21.878Z,7.63
2023-01-21T19:04:50.545Z,7.70
2023-01-21T19:07:23.489Z,7.07
2023-01-21T19:09:53.495Z,7.13
2023-01-21T19:12:24.363Z,5.37
2023-01-21T19:14:55.314Z,5.70
2023-01-21T19:17:33.693Z,6.90
2023-01-21T19:20:02.485Z,6.80
2023-01-21T19:22:32.933Z,6.67
2023-01-21T19:25:02.748Z,7.20
2023-01-21T19:27:35.290Z,6.50
2023-01-21T19:30:03.887Z,6.43
2023-01-21T19:32:32.627Z,6.50
2023-01-21T19:35:01.892Z,7.77
2023-01-21T19:37:30.350Z,6.93
2023-01-21T19:39:58.924Z,7.43
2023-01-21T19:42:28.738Z,7.77
2023-01-21T19:44:59.276Z,7.13
2023-01-21T19:47:30.675Z,17.93
2023-01-21T19:49:59.293Z,23.40
2023-01-21T19:52:27.955Z,17.27
2023-01-21T19:55:00.514Z,7.57
2023-01-21T19:57:30.717Z,5.80
2023-01-21T20:00:00.585Z,6.10
2023-01-21T20:02:29.732Z,6.10
2023-01-21T20:04:58.352Z,4.50
2023-01-21T20:07:26.864Z,4.60
2023-01-21T20:09:55.414Z,4.77
2023-01-21T20:12:23.868Z,4.77
2023-01-21T20:14:53.763Z,7.90
2023-01-21T20:17:25.393Z,8.33
2023-01-21T20:19:53.924Z,13.60
2023-01-21T20:22:22.391Z,10.57
2023-01-21T20:24:51.042Z,5.80
2023-01-21T20:27:19.739Z,5.67
2023-01-21T20:29:55.874Z,5.80
2023-01-21T20:32:32.423Z,10.03
2023-01-21T20:35:03.472Z,10.90
2023-01-21T20:37:31.907Z,6.63
2023-01-21T20:40:00.534Z,5.80
2023-01-21T20:42:32.243Z,4.20
2023-01-21T20:45:00.847Z,9.80
2023-01-21T20:47:38.194Z,6.73
2023-01-21T20:50:21.445Z,5.50
2023-01-21T20:52:51.758Z,4.73
2023-01-21T20:55:21.791Z,5.50
2023-01-21T20:57:50.450Z,5.13
2023-01-21T21:00:23.998Z,5.80
2023-01-21T21:02:55.505Z,6.17
2023-01-21T21:05:28.794Z,6.00
2023-01-21T21:07:57.682Z,6.60
2023-01-21T21:10:29.484Z,6.40
2023-01-21T21:12:58.848Z,5.90
2023-01-21T21:15:29.668Z,5.70
2023-01-21T21:17:58.864Z,5.60
2023-01-21T21:20:30.863Z,5.37
2023-01-21T21:22:59.692Z,5.37
2023-01-21T21:25:30.039Z,5.07
2023-01-21T21:28:00.660Z,5.23
2023-01-21T21:30:31.309Z,5.40
2023-01-21T21:33:01.756Z,5.10
2023-01-21T21:35:33.446Z,5.53
2023-01-21T21:38:05.509Z,5.60
2023-01-21T21:40:36.154Z,5.17
2023-01-21T21:43:22.151Z,5.23
2023-01-21T21:46:10.274Z,5.17
2023-01-21T21:48:42.598Z,5.40
2023-01-21T21:51:14.147Z,5.27
2023-01-21T21:53:42.807Z,5.70
2023-01-21T21:56:14.835Z,4.83
2023-01-21T21:58:43.814Z,5.63
2023-01-21T22:01:13.973Z,5.20
2023-01-21T22:03:43.821Z,5.13
2023-01-21T22:06:14.605Z,5.20
2023-01-21T22:08:46.203Z,5.00
2023-01-21T22:11:16.268Z,4.40
2023-01-21T22:13:47.128Z,5.10
2023-01-21T22:16:18.574Z,4.87
2023-01-21T22:18:49.488Z,4.53
2023-01-21T22:21:21.666Z,5.20
2023-01-21T22:23:50.382Z,5.00
2023-01-21T22:26:20.745Z,5.20
2023-01-21T22:28:51.309Z,5.77
2023-01-21T22:31:23.213Z,5.60
2023-01-21T22:33:52.733Z,6.43
2023-01-21T22:36:24.631Z,5.43
2023-01-21T22:38:53.467Z,6.07
2023-01-21T22:41:26.364Z,6.27
2023-01-21T22:43:55.390Z,6.10
2023-01-21T22:46:25.606Z,5.97
2023-01-21T22:48:55.200Z,5.73
2023-01-21T22:51:25.319Z,5.63
2023-01-21T22:53:54.830Z,6.47
2023-01-21T22:56:44.727Z,5.90
2023-01-21T22:59:14.515Z,5.67
2023-01-21T23:01:43.039Z,6.13
2023-01-21T23:04:12.086Z,6.33
2023-01-21T23:06:44.689Z,6.20
2023-01-21T23:09:17.141Z,6.00
2023-01-21T23:11:46.107Z,6.40
2023-01-21T23:14:14.611Z,6.40
2023-01-21T23:16:43.031Z,7.63
2023-01-21T23:19:11.629Z,6.37
2023-01-21T23:21:41.669Z,6.60
2023-01-21T23:24:11.546Z,7.00
2023-01-21T23:26:40.003Z,6.80
2023-01-21T23:29:08.580Z,6.10
2023-01-21T23:31:37.227Z,6.83
2023-01-21T23:34:07.608Z,6.63
2023-01-21T23:36:35.983Z,6.40
2023-01-21T23:39:05.941Z,8.53
2023-01-21T23:41:34.414Z,8.07
2023-01-21T23:44:04.645Z,6.30
2023-01-21T23:46:33.173Z,7.50
2023-01-21T23:49:01.753Z,7.43
2023-01-21T23:51:32.098Z,7.27
2023-01-21T23:54:01.990Z,7.33
2023-01-21T23:56:33.124Z,9.30
2023-01-21T23:59:01.847Z,8.07
